ske48.co.jp alexa rank chart, ske48.co.jp alexa rank daily changes

ske48.co.jp alexa rank chart, ske48.co.jp alexa rank daily changes

ske48.co.jp
Actual rank:
44 429

RANK HISTORY

Date Rank Diff
2018/04/21 44 429 -16 523
2018/04/20 60 952 +14 375
2018/04/19 46 577 -69 625
2018/04/18 116 202 +81 054
2018/04/17 35 148 -4 738
2018/04/16 39 886 -13 792
2018/04/14 53 678 -16 962
2018/04/13 70 640 +13 830
2018/04/12 56 810 -74 361
2018/04/11 131 171 +102 364
2018/04/10 28 807 -62 224
2018/04/09 91 031 +39 356
2018/04/08 51 675 +16 542
2018/04/07 35 133 -211 072
2018/04/06 246 205 +193 239
2018/04/05 52 966 +25 324
2018/04/04 27 642 +2 491
2018/04/03 25 151 -9 761
2018/04/02 34 912 +10 291
2018/04/01 24 621 -4 141
2018/03/31 28 762 -37 507
2018/03/30 66 269 -692
2018/03/29 66 961 -17 759
2018/03/28 84 720 +58 754
2018/03/27 25 966 -14 659
2018/03/26 40 625 -24 324
2018/03/25 64 949 -42 281
2018/03/24 107 230 +59 199
2018/03/23 48 031 -27 051
2018/03/22 75 082 +29 936
2018/03/21 45 146 +5 933
2018/03/20 39 213 +4 563
2018/03/19 34 650 -40 406
2018/03/18 75 056 -22 649
2018/03/17 97 705 +43 857
2018/03/16 53 848 +30 196
2018/03/15 23 652 -74 843
2018/03/14 98 495 +47 457
2018/03/13 51 038 +16 715
2018/03/12 34 323 -24 650
2018/03/11 58 973 -27 354
2018/03/10 86 327 +52 189
2018/03/09 34 138 -1 771
2018/03/08 35 909 -967
2018/03/07 36 876 -9 827
2018/03/06 46 703 +3 544
2018/03/05 43 159 -24 708
2018/03/04 67 867 +18 857
2018/03/03 49 010 -24 231
2018/03/02 73 241 +24 760
2018/03/01 48 481 -7 562
2018/02/28 56 043 +18 941
2018/02/27 37 102 -2 986
2018/02/26 40 088 -49 857
2018/02/25 89 945 +45 892
2018/02/23 44 053 -2 558
2018/02/22 46 611 +20 770
2018/02/21 25 841 +3 945
2018/02/20 21 896

WIDGET FOR YOUR SITE

DOMAINS WITH THE NEAREST RANK

Domain Rank
usamodelkina.ru 44 424
ceskaposta.cz 44 425
rosalindfranklin.edu 44 426
eatnow.com.au 44 427
temp.domains 44 428
ske48.co.jp 44 429
ncplus.pl 44 430
botva.ru 44 431
videoland.com 44 432
toutcomment.com 44 433
citybookers.com 44 434

DOMAINS WITH THE NEAREST RANK BY TLD .co.jp

Domain Rank
daiwahouse.co.jp 43 254
aniplex.co.jp 43 636
pizza-la.co.jp 44 134
clubd.co.jp 44 247
tv-osaka.co.jp 44 253
ske48.co.jp 44 429
fromjapan.co.jp 44 469
westjr.co.jp 45 211
ncbank.co.jp 45 392
forever21.co.jp 45 752
vanfu.co.jp 45 753